createdAt,value
2023-08-15T00:00:01.220Z,100200.13
2023-08-15T00:02:29.036Z,100201.19
2023-08-15T00:04:57.363Z,100195.94
2023-08-15T00:07:25.261Z,100198.88
2023-08-15T00:09:53.127Z,100199.06
2023-08-15T00:12:22.480Z,100194.06
2023-08-15T00:14:50.338Z,100190.72
2023-08-15T00:17:18.252Z,100200.72
2023-08-15T00:19:46.227Z,100201.38
2023-08-15T00:22:14.128Z,100196.97
2023-08-15T00:24:41.960Z,100184.66
2023-08-15T00:27:09.999Z,100195.88
2023-08-15T00:29:39.359Z,100194.78
2023-08-15T00:32:07.339Z,100194.31
2023-08-15T00:34:35.182Z,100193.22
2023-08-15T00:37:03.189Z,100184.25
2023-08-15T00:39:31.202Z,100195.31
2023-08-15T00:41:59.052Z,100188.38
2023-08-15T00:44:27.034Z,100176.03
2023-08-15T00:46:56.615Z,100176.22
2023-08-15T00:49:24.564Z,100174.75
2023-08-15T00:51:52.512Z,100175.97
2023-08-15T00:54:20.545Z,100177.66
2023-08-15T00:56:48.481Z,100179.31
2023-08-15T00:59:16.594Z,100174.31
2023-08-15T01:01:45.102Z,100172.63
2023-08-15T01:04:15.638Z,100161.78
2023-08-15T01:06:43.487Z,100158.66
2023-08-15T01:09:11.350Z,100155.09
2023-08-15T01:11:53.179Z,100151.34
2023-08-15T01:14:24.048Z,100144.06
2023-08-15T01:16:54.237Z,100147.81
2023-08-15T01:19:31.080Z,100164.91
2023-08-15T01:22:01.413Z,100171.97
2023-08-15T01:24:32.115Z,100169.03
2023-08-15T01:26:59.971Z,100176.53
2023-08-15T01:29:27.764Z,100180.03
2023-08-15T01:32:00.617Z,100175.25
2023-08-15T01:34:34.296Z,100176.28
2023-08-15T01:37:09.324Z,100180.66
2023-08-15T01:39:40.777Z,100180.47
2023-08-15T01:42:08.959Z,100184.84
2023-08-15T01:44:38.629Z,100183.38
2023-08-15T01:47:06.902Z,100188.34
2023-08-15T01:49:34.756Z,100193.75
2023-08-15T01:52:02.653Z,100194.41
2023-08-15T01:54:31.557Z,100191.88
2023-08-15T01:57:00.713Z,100177.50
2023-08-15T01:59:28.583Z,100181.66
2023-08-15T02:01:56.392Z,100180.03
2023-08-15T02:04:24.363Z,100192.97
2023-08-15T02:06:52.232Z,100218.59
2023-08-15T02:09:20.051Z,100261.00
2023-08-15T02:11:47.903Z,100272.03
2023-08-15T02:14:17.082Z,100263.47
2023-08-15T02:16:44.902Z,100236.78
2023-08-15T02:19:13.486Z,100262.38
2023-08-15T02:21:41.305Z,100256.31
2023-08-15T02:24:09.339Z,100252.38
2023-08-15T02:26:37.256Z,100269.72
2023-08-15T02:29:05.356Z,100259.91
2023-08-15T02:31:35.744Z,100254.13
2023-08-15T02:34:03.872Z,100255.59
2023-08-15T02:36:31.730Z,100250.19
2023-08-15T02:38:59.542Z,100241.22
2023-08-15T02:41:27.384Z,100240.81
2023-08-15T02:43:55.236Z,100239.59
2023-08-15T02:46:23.550Z,100230.25
2023-08-15T02:48:53.379Z,100206.50
2023-08-15T02:51:21.255Z,100189.88
2023-08-15T02:53:49.200Z,100174.66
2023-08-15T02:56:17.192Z,100167.34
2023-08-15T02:58:45.672Z,100167.34
2023-08-15T03:01:13.979Z,100171.16
2023-08-15T03:03:41.854Z,100182.44
2023-08-15T03:06:11.121Z,100175.31
2023-08-15T03:08:39.470Z,100169.91
2023-08-15T03:11:07.625Z,100169.91
2023-08-15T03:13:35.547Z,100164.28
2023-08-15T03:16:03.406Z,100175.13
2023-08-15T03:18:31.311Z,100186.78
2023-08-15T03:20:59.762Z,100183.69
2023-08-15T03:23:29.329Z,100183.50
2023-08-15T03:25:58.509Z,100181.06
2023-08-15T03:28:26.696Z,100177.97
2023-08-15T03:30:55.012Z,100187.34
2023-08-15T03:33:23.449Z,100189.56
2023-08-15T03:35:53.678Z,100192.28
2023-08-15T03:38:23.042Z,100203.13
2023-08-15T03:41:02.756Z,100203.31
2023-08-15T03:43:30.586Z,100205.66
2023-08-15T03:45:58.495Z,100206.84
2023-08-15T03:48:26.434Z,100223.31
2023-08-15T03:50:56.086Z,100231.63
2023-08-15T03:53:24.019Z,100273.28
2023-08-15T03:55:54.373Z,100297.22
2023-08-15T03:58:23.391Z,100314.50
2023-08-15T04:00:51.944Z,100316.41
2023-08-15T04:03:19.977Z,100301.16
2023-08-15T04:05:48.848Z,100305.34
2023-08-15T04:08:18.019Z,100325.59
2023-08-15T04:10:46.881Z,100328.97
2023-08-15T04:13:16.633Z,100324.56
2023-08-15T04:15:44.512Z,100339.81
2023-08-15T04:18:12.546Z,100349.59
2023-08-15T04:20:41.327Z,100356.69
2023-08-15T04:23:10.188Z,100356.25
2023-08-15T04:25:40.426Z,100357.06
2023-08-15T04:28:08.359Z,100358.78
2023-08-15T04:30:37.664Z,100354.19
2023-08-15T04:33:06.220Z,100352.78
2023-08-15T04:35:34.105Z,100350.72
2023-08-15T04:38:01.888Z,100351.56
2023-08-15T04:40:33.875Z,100358.66
2023-08-15T04:43:02.341Z,100354.06
2023-08-15T04:45:30.340Z,100342.09
2023-08-15T04:47:59.700Z,100338.75
2023-08-15T04:50:27.640Z,100338.56
2023-08-15T04:52:55.504Z,100336.53
2023-08-15T04:55:23.294Z,100328.41
2023-08-15T04:57:51.104Z,100331.28
2023-08-15T05:00:20.460Z,100326.91
2023-08-15T05:02:48.708Z,100333.34
2023-08-15T05:05:18.086Z,100329.22
2023-08-15T05:07:45.967Z,100337.19
2023-08-15T05:10:13.818Z,100341.53
2023-08-15T05:12:41.626Z,100340.53
2023-08-15T05:15:10.560Z,100332.22
2023-08-15T05:17:38.562Z,100316.59
2023-08-15T05:20:07.309Z,100305.97
2023-08-15T05:22:36.552Z,100298.69
2023-08-15T05:25:04.930Z,100294.97
2023-08-15T05:27:32.756Z,100303.53
2023-08-15T05:30:00.813Z,100311.06
2023-08-15T05:32:28.753Z,100313.16
2023-08-15T05:34:56.688Z,100315.31
2023-08-15T05:37:24.489Z,100312.00
2023-08-15T05:39:53.853Z,100316.63
2023-08-15T05:42:22.022Z,100317.50
2023-08-15T05:44:49.890Z,100331.94
2023-08-15T05:47:17.792Z,100338.63
2023-08-15T05:49:45.611Z,100339.06
2023-08-15T05:52:13.449Z,100347.66
2023-08-15T05:54:41.308Z,100332.00
2023-08-15T05:57:10.499Z,100319.53
2023-08-15T05:59:38.372Z,100317.66
2023-08-15T06:02:06.290Z,100323.34
2023-08-15T06:04:34.167Z,100326.69
2023-08-15T06:07:03.806Z,100322.88
2023-08-15T06:09:31.811Z,100319.72
2023-08-15T06:11:59.751Z,100321.59
2023-08-15T06:14:28.997Z,100317.84
2023-08-15T06:16:56.901Z,100313.91
2023-08-15T06:19:24.834Z,100313.91
2023-08-15T06:21:52.726Z,100311.63
2023-08-15T06:24:20.561Z,100301.88
2023-08-15T06:26:48.377Z,100311.69
2023-08-15T06:29:16.230Z,100315.44
2023-08-15T06:31:45.440Z,100327.34
2023-08-15T06:34:13.310Z,100325.25
2023-08-15T06:36:41.356Z,100316.31
2023-08-15T06:39:09.343Z,100315.50
2023-08-15T06:41:37.175Z,100318.00
2023-08-15T06:44:05.634Z,100325.09
2023-08-15T06:46:33.550Z,100339.94
2023-08-15T06:49:02.722Z,100337.47
2023-08-15T06:51:30.521Z,100337.69
2023-08-15T06:53:58.365Z,100336.66
2023-08-15T06:56:26.410Z,100338.78
2023-08-15T06:58:54.269Z,100346.94
2023-08-15T07:01:22.323Z,100346.56
2023-08-15T07:03:50.647Z,100341.16
2023-08-15T07:06:19.902Z,100335.97
2023-08-15T07:08:48.321Z,100336.19
2023-08-15T07:11:16.188Z,100340.56
2023-08-15T07:13:44.016Z,100344.78
2023-08-15T07:16:11.945Z,100350.22
2023-08-15T07:18:39.832Z,100354.00
2023-08-15T07:21:07.759Z,100354.19
2023-08-15T07:23:37.284Z,100356.28
2023-08-15T07:26:05.079Z,100361.53
2023-08-15T07:28:32.909Z,100361.50
2023-08-15T07:31:00.784Z,100364.66
2023-08-15T07:33:28.597Z,100362.34
2023-08-15T07:35:56.479Z,100365.72
2023-08-15T07:38:24.711Z,100365.28
2023-08-15T07:40:54.028Z,100363.38
2023-08-15T07:43:21.939Z,100366.91
2023-08-15T07:45:49.834Z,100365.19
2023-08-15T07:48:18.108Z,100358.44
2023-08-15T07:50:46.065Z,100367.00
2023-08-15T07:53:13.971Z,100356.66
2023-08-15T07:55:41.851Z,100353.03
2023-08-15T07:58:11.044Z,100356.91
2023-08-15T08:00:39.067Z,100357.63
2023-08-15T08:03:09.726Z,100367.56
2023-08-15T08:05:37.902Z,100365.31
2023-08-15T08:08:06.210Z,100381.50
2023-08-15T08:10:34.176Z,100383.78
2023-08-15T08:13:02.419Z,100382.50
2023-08-15T08:15:31.755Z,100384.41
2023-08-15T08:17:59.715Z,100393.91
2023-08-15T08:20:27.725Z,100414.75
2023-08-15T08:22:55.614Z,100402.19
2023-08-15T08:25:26.392Z,100391.34
2023-08-15T08:27:55.507Z,100404.56
2023-08-15T08:30:26.562Z,100388.47
2023-08-15T08:32:56.605Z,100398.13
2023-08-15T08:35:24.589Z,100399.09
2023-08-15T08:37:52.866Z,100389.31
2023-08-15T08:40:21.390Z,100398.63
2023-08-15T08:42:49.396Z,100401.63
2023-08-15T08:45:17.899Z,100396.53
2023-08-15T08:47:48.080Z,100392.34
2023-08-15T08:50:18.517Z,100393.69
2023-08-15T08:52:50.138Z,100405.84
2023-08-15T08:55:19.309Z,100410.00
2023-08-15T08:57:51.841Z,100421.69
2023-08-15T09:00:23.575Z,100422.44
2023-08-15T09:02:53.848Z,100418.16
2023-08-15T09:05:23.337Z,100417.88
2023-08-15T09:07:52.208Z,100411.88
2023-08-15T09:10:20.340Z,100412.63
2023-08-15T09:12:48.617Z,100416.38
2023-08-15T09:15:16.592Z,100414.91
2023-08-15T09:17:45.311Z,100412.50
2023-08-15T09:20:15.057Z,100414.59
2023-08-15T09:22:46.927Z,100419.81
2023-08-15T09:25:16.930Z,100421.72
2023-08-15T09:27:45.049Z,100419.56
2023-08-15T09:30:14.509Z,100419.22
2023-08-15T09:32:43.133Z,100423.88
2023-08-15T09:35:12.108Z,100414.22
2023-08-15T09:37:46.461Z,100415.50
2023-08-15T09:40:17.319Z,100425.56
2023-08-15T09:42:46.253Z,100418.84
2023-08-15T09:45:14.738Z,100414.03
2023-08-15T09:47:44.122Z,100412.50
2023-08-15T09:50:13.581Z,100415.59
2023-08-15T09:52:43.198Z,100420.63
2023-08-15T09:55:13.720Z,100420.06
2023-08-15T09:57:43.395Z,100422.56
2023-08-15T10:00:14.563Z,100431.19
2023-08-15T10:02:45.599Z,100439.91
2023-08-15T10:05:14.976Z,100452.13
2023-08-15T10:07:44.095Z,100451.06
2023-08-15T10:10:16.035Z,100455.88
2023-08-15T10:12:44.421Z,100452.84
2023-08-15T10:15:13.007Z,100459.56
2023-08-15T10:17:41.208Z,100466.34
2023-08-15T10:20:11.872Z,100466.50
2023-08-15T10:22:41.774Z,100467.72
2023-08-15T10:25:36.590Z,100470.16
2023-08-15T10:28:10.904Z,100474.13
2023-08-15T10:30:44.068Z,100483.56
2023-08-15T10:33:21.567Z,100483.19
2023-08-15T10:35:51.157Z,100470.22
2023-08-15T10:38:21.050Z,100472.16
2023-08-15T10:40:52.550Z,100462.00
2023-08-15T10:43:20.485Z,100468.19
2023-08-15T10:45:51.911Z,100456.41
2023-08-15T10:48:41.103Z,100451.78
2023-08-15T10:51:20.127Z,100459.78
2023-08-15T10:53:50.623Z,100455.84
2023-08-15T10:56:24.596Z,100464.19
2023-08-15T10:58:53.038Z,100458.25
2023-08-15T11:01:21.989Z,100459.88
2023-08-15T11:03:51.065Z,100458.50
2023-08-15T11:06:19.569Z,100463.53
2023-08-15T11:08:49.367Z,100471.03
2023-08-15T11:11:18.200Z,100465.28
2023-08-15T11:13:48.800Z,100472.44
2023-08-15T11:16:17.796Z,100469.66
2023-08-15T11:18:46.668Z,100466.41
2023-08-15T11:21:16.525Z,100472.81
2023-08-15T11:23:46.380Z,100467.97
2023-08-15T11:26:16.250Z,100459.88
2023-08-15T11:28:44.674Z,100447.25
2023-08-15T11:33:46.531Z,100466.34
2023-08-15T11:36:14.342Z,100460.50
2023-08-15T11:38:42.196Z,100465.56
2023-08-15T11:41:10.149Z,100463.56
2023-08-15T11:43:38.136Z,100459.69
2023-08-15T11:46:07.386Z,100460.69
2023-08-15T11:48:37.072Z,100454.06
2023-08-15T11:51:06.780Z,100456.91
2023-08-15T11:53:34.944Z,100453.47
2023-08-15T11:56:02.815Z,100454.91
2023-08-15T11:58:31.245Z,100449.75
2023-08-15T12:01:02.805Z,100464.41
2023-08-15T12:03:32.201Z,100456.09
2023-08-15T12:06:03.069Z,100448.84
2023-08-15T12:08:31.878Z,100449.31
2023-08-15T12:11:02.408Z,100452.03
2023-08-15T12:13:31.745Z,100451.44
2023-08-15T12:16:00.624Z,100453.34
2023-08-15T12:18:28.473Z,100456.59
2023-08-15T12:20:56.442Z,100464.19
2023-08-15T12:23:28.913Z,100473.22
2023-08-15T12:25:57.771Z,100479.66
2023-08-15T12:28:29.118Z,100492.75
2023-08-15T12:30:57.613Z,100493.38
2023-08-15T12:35:56.307Z,100495.53
2023-08-15T12:38:25.569Z,100498.88
2023-08-15T12:40:53.586Z,100502.72
2023-08-15T12:43:21.492Z,100495.91
2023-08-15T12:45:49.788Z,100504.72
2023-08-15T12:48:17.987Z,100500.00
2023-08-15T12:50:46.053Z,100502.53
2023-08-15T12:53:14.120Z,100494.94
2023-08-15T12:55:44.830Z,100491.34
2023-08-15T12:58:12.862Z,100500.25
2023-08-15T13:00:42.716Z,100502.50
2023-08-15T13:03:10.890Z,100500.78
2023-08-15T13:05:38.923Z,100504.63
2023-08-15T13:08:07.572Z,100508.81
2023-08-15T13:10:36.118Z,100507.94
2023-08-15T13:13:05.619Z,100496.31
2023-08-15T13:15:33.521Z,100504.72
2023-08-15T13:18:01.481Z,100512.03
2023-08-15T13:20:29.400Z,100501.03
2023-08-15T13:22:57.291Z,100501.31
2023-08-15T13:25:25.255Z,100499.97
2023-08-15T13:27:53.178Z,100497.38
2023-08-15T13:30:22.493Z,100498.03
2023-08-15T13:32:50.607Z,100497.75
2023-08-15T13:35:18.465Z,100492.69
2023-08-15T13:37:46.360Z,100493.28
2023-08-15T13:40:16.383Z,100493.09
2023-08-15T13:42:44.454Z,100502.91
2023-08-15T13:45:12.609Z,100488.66
2023-08-15T13:47:41.870Z,100494.50
2023-08-15T13:50:10.740Z,100486.47
2023-08-15T13:52:38.635Z,100485.94
2023-08-15T13:55:07.467Z,100483.00
2023-08-15T13:57:35.450Z,100479.00
2023-08-15T14:00:04.419Z,100477.84
2023-08-15T14:02:35.367Z,100492.88
2023-08-15T14:05:07.173Z,100483.75
2023-08-15T14:07:35.394Z,100496.00
2023-08-15T14:10:04.291Z,100487.63
2023-08-15T14:12:32.171Z,100491.53
2023-08-15T14:15:00.078Z,100488.91
2023-08-15T14:17:27.943Z,100488.03
2023-08-15T14:19:55.787Z,100500.88
2023-08-15T14:22:25.154Z,100504.63
2023-08-15T14:24:53.676Z,100501.72
2023-08-15T14:27:21.565Z,100495.09
2023-08-15T14:29:50.368Z,100498.13
2023-08-15T14:32:18.452Z,100493.91
2023-08-15T14:34:46.833Z,100499.09
2023-08-15T14:37:14.737Z,100492.19
2023-08-15T14:39:44.936Z,100487.84
2023-08-15T14:42:12.739Z,100491.88
2023-08-15T14:44:40.608Z,100495.06
2023-08-15T14:47:08.603Z,100494.53
2023-08-15T14:49:36.488Z,100487.25
2023-08-15T14:52:04.918Z,100485.19
2023-08-15T14:54:32.733Z,100483.78
2023-08-15T14:57:01.881Z,100487.03
2023-08-15T14:59:29.701Z,100479.75
2023-08-15T15:01:58.990Z,100474.13
2023-08-15T15:04:26.886Z,100483.81
2023-08-15T15:06:54.712Z,100473.19
2023-08-15T15:09:22.605Z,100481.38
2023-08-15T15:11:50.556Z,100474.75
2023-08-15T15:14:19.818Z,100478.22
2023-08-15T15:16:48.788Z,100476.53
2023-08-15T15:19:16.744Z,100482.00
2023-08-15T15:21:44.608Z,100480.09
2023-08-15T15:24:12.486Z,100479.72
2023-08-15T15:26:40.370Z,100479.09
2023-08-15T15:29:08.228Z,100473.69
2023-08-15T15:31:37.494Z,100479.00
2023-08-15T15:34:05.568Z,100476.69
2023-08-15T15:36:33.441Z,100483.03
2023-08-15T15:39:01.498Z,100482.84
2023-08-15T15:41:29.354Z,100483.91
2023-08-15T15:43:57.204Z,100483.91
2023-08-15T15:46:26.251Z,100482.91
2023-08-15T15:48:56.446Z,100488.16
2023-08-15T15:51:24.341Z,100486.28
2023-08-15T15:53:52.178Z,100486.31
2023-08-15T15:56:20.056Z,100479.22
2023-08-15T15:58:48.218Z,100487.81
2023-08-15T16:01:16.080Z,100479.22
2023-08-15T16:03:44.668Z,100479.06
2023-08-15T16:06:13.978Z,100484.91
2023-08-15T16:08:41.996Z,100482.81
2023-08-15T16:11:10.733Z,100476.91
2023-08-15T16:13:38.656Z,100473.34
2023-08-15T16:16:06.583Z,100471.03
2023-08-15T16:18:34.518Z,100474.00
2023-08-15T16:21:03.143Z,100476.34
2023-08-15T16:23:32.457Z,100465.63
2023-08-15T16:26:00.361Z,100466.72
2023-08-15T16:28:28.250Z,100474.03
2023-08-15T16:30:56.185Z,100475.50
2023-08-15T16:33:24.120Z,100467.69
2023-08-15T16:35:52.022Z,100474.44
2023-08-15T16:38:19.945Z,100463.13
2023-08-15T16:40:50.268Z,100461.00
2023-08-15T16:43:19.298Z,100467.31
2023-08-15T16:45:47.757Z,100465.44
2023-08-15T16:48:15.684Z,100465.84
2023-08-15T16:50:44.243Z,100469.19
2023-08-15T16:53:12.101Z,100474.19
2023-08-15T16:55:39.955Z,100467.03
2023-08-15T16:58:09.267Z,100483.16
2023-08-15T17:00:37.446Z,100471.59
2023-08-15T17:03:06.070Z,100475.81
2023-08-15T17:05:34.122Z,100479.38
2023-08-15T17:08:02.109Z,100482.94
2023-08-15T17:10:30.406Z,100485.88
2023-08-15T17:12:58.293Z,100485.28
2023-08-15T17:15:27.689Z,100480.69
2023-08-15T17:17:55.624Z,100485.94
2023-08-15T17:20:23.624Z,100496.78
2023-08-15T17:22:51.508Z,100495.34
2023-08-15T17:25:19.362Z,100496.59
2023-08-15T17:27:47.229Z,100496.22
2023-08-15T17:30:16.880Z,100493.09
2023-08-15T17:32:46.218Z,100500.19
2023-08-15T17:35:14.087Z,100506.09
2023-08-15T17:37:42.025Z,100507.97
2023-08-15T17:40:10.709Z,100509.06
2023-08-15T17:42:38.576Z,100516.59
2023-08-15T17:45:07.449Z,100526.44
2023-08-15T17:47:35.413Z,100523.75
2023-08-15T17:50:05.707Z,100529.66
2023-08-15T17:52:33.740Z,100537.63
2023-08-15T17:55:02.540Z,100547.06
2023-08-15T17:57:30.461Z,100554.63
2023-08-15T17:59:58.486Z,100559.44
2023-08-15T18:02:26.434Z,100558.81
2023-08-15T18:04:54.370Z,100555.28
2023-08-15T18:07:23.656Z,100560.72
2023-08-15T18:09:51.501Z,100570.97
2023-08-15T18:12:19.452Z,100567.88
2023-08-15T18:14:47.450Z,100569.31
2023-08-15T18:17:15.281Z,100571.66
2023-08-15T18:19:44.901Z,100578.75
2023-08-15T18:22:14.765Z,100584.22
2023-08-15T18:24:44.274Z,100592.78
2023-08-15T18:27:12.123Z,100594.25
2023-08-15T18:29:39.986Z,100595.72
2023-08-15T18:32:08.057Z,100598.63
2023-08-15T18:34:35.991Z,100600.94
2023-08-15T18:37:03.918Z,100598.84
2023-08-15T18:39:31.728Z,100607.84
2023-08-15T18:42:00.915Z,100609.50
2023-08-15T18:44:29.051Z,100608.25
2023-08-15T18:46:57.007Z,100613.88
2023-08-15T18:49:24.845Z,100613.25
2023-08-15T18:51:52.645Z,100615.53
2023-08-15T18:54:20.458Z,100620.31
2023-08-15T18:56:49.981Z,100623.03
2023-08-15T18:59:23.995Z,100623.22
2023-08-15T19:01:51.876Z,100625.91
2023-08-15T19:04:19.766Z,100621.47
2023-08-15T19:06:47.574Z,100624.41
2023-08-15T19:09:15.409Z,100629.84
2023-08-15T19:11:43.304Z,100631.69
2023-08-15T19:14:12.246Z,100638.97
2023-08-15T19:16:41.574Z,100637.69
2023-08-15T19:19:09.454Z,100632.44
2023-08-15T19:21:37.324Z,100634.06
2023-08-15T19:24:06.017Z,100640.13
2023-08-15T19:26:34.166Z,100628.81
2023-08-15T19:29:02.085Z,100635.69
2023-08-15T19:31:30.209Z,100636.72
2023-08-15T19:33:59.519Z,100635.03
2023-08-15T19:36:27.498Z,100642.75
2023-08-15T19:38:55.676Z,100643.53
2023-08-15T19:41:24.769Z,100642.56
2023-08-15T19:43:57.162Z,100639.56
2023-08-15T19:46:25.157Z,100637.69
2023-08-15T19:48:53.109Z,100638.16
2023-08-15T19:51:22.583Z,100635.88
2023-08-15T19:53:50.608Z,100638.59
2023-08-15T19:56:18.821Z,100649.47
2023-08-15T19:58:46.890Z,100639.00
2023-08-15T20:01:14.844Z,100655.50
2023-08-15T20:03:42.718Z,100654.00
2023-08-15T20:06:10.669Z,100649.81
2023-08-15T20:08:40.042Z,100643.34
2023-08-15T20:11:07.945Z,100632.41
2023-08-15T20:13:35.843Z,100627.97
2023-08-15T20:16:03.781Z,100639.63
2023-08-15T20:18:31.638Z,100642.28
2023-08-15T20:21:01.872Z,100634.72
2023-08-15T20:23:29.768Z,100641.59
2023-08-15T20:25:59.090Z,100632.81
2023-08-15T20:28:26.931Z,100628.16
2023-08-15T20:30:55.305Z,100635.00
2023-08-15T20:33:23.198Z,100636.72
2023-08-15T20:35:51.247Z,100642.06
2023-08-15T20:38:20.287Z,100633.81
2023-08-15T20:40:48.246Z,100629.69
2023-08-15T20:43:17.770Z,100628.59
2023-08-15T20:45:45.671Z,100626.09
2023-08-15T20:48:13.541Z,100626.09
2023-08-15T20:50:41.479Z,100624.16
2023-08-15T20:53:10.966Z,100617.03
2023-08-15T20:55:38.907Z,100618.44
2023-08-15T20:58:07.452Z,100617.63
2023-08-15T21:00:36.779Z,100614.25
2023-08-15T21:03:04.998Z,100619.69
2023-08-15T21:05:32.803Z,100620.44
2023-08-15T21:08:00.651Z,100616.72
2023-08-15T21:10:30.036Z,100624.19
2023-08-15T21:12:58.057Z,100625.75
2023-08-15T21:15:26.004Z,100625.28
2023-08-15T21:17:55.700Z,100629.41
2023-08-15T21:20:24.489Z,100626.22
2023-08-15T21:22:52.546Z,100618.28
2023-08-15T21:25:20.417Z,100619.69
2023-08-15T21:27:50.680Z,100631.09
2023-08-15T21:30:18.560Z,100638.19
2023-08-15T21:32:46.453Z,100629.59
2023-08-15T21:35:15.742Z,100632.31
2023-08-15T21:37:43.586Z,100632.09
2023-08-15T21:40:12.258Z,100641.63
2023-08-15T21:42:40.109Z,100641.19
2023-08-15T21:45:09.224Z,100632.41
2023-08-15T21:47:37.223Z,100641.72
2023-08-15T21:50:06.072Z,100643.09
2023-08-15T21:52:35.307Z,100641.44
2023-08-15T21:55:03.184Z,100640.03
2023-08-15T21:57:31.052Z,100644.16
2023-08-15T21:59:58.860Z,100649.09
2023-08-15T22:02:26.758Z,100655.72
2023-08-15T22:04:54.652Z,100654.59
2023-08-15T22:07:22.717Z,100652.88
2023-08-15T22:09:52.061Z,100658.03
2023-08-15T22:12:19.984Z,100654.66
2023-08-15T22:14:47.840Z,100646.56
2023-08-15T22:17:15.822Z,100646.06
2023-08-15T22:19:44.300Z,100644.19
2023-08-15T22:22:12.225Z,100647.88
2023-08-15T22:24:41.112Z,100634.41
2023-08-15T22:27:11.855Z,100643.94
2023-08-15T22:29:39.664Z,100644.09
2023-08-15T22:32:07.814Z,100649.03
2023-08-15T22:34:35.611Z,100648.38
2023-08-15T22:37:03.661Z,100647.53
2023-08-15T22:39:31.552Z,100647.06
2023-08-15T22:41:59.394Z,100653.97
2023-08-15T22:44:28.618Z,100647.22
2023-08-15T22:46:56.461Z,100652.81
2023-08-15T22:49:24.281Z,100650.16
2023-08-15T22:51:52.168Z,100650.72
2023-08-15T22:54:20.088Z,100656.28
2023-08-15T22:56:48.215Z,100653.31
2023-08-15T22:59:16.075Z,100653.09
2023-08-15T23:01:45.324Z,100654.63
2023-08-15T23:04:13.324Z,100657.03
2023-08-15T23:06:41.249Z,100653.97
2023-08-15T23:09:13.191Z,100652.66
2023-08-15T23:11:41.603Z,100654.69
2023-08-15T23:14:09.508Z,100649.06
2023-08-15T23:16:37.390Z,100643.50
2023-08-15T23:19:06.979Z,100635.88
2023-08-15T23:21:34.890Z,100640.97
2023-08-15T23:24:02.785Z,100647.97
2023-08-15T23:26:30.665Z,100652.72
2023-08-15T23:28:58.506Z,100641.03
2023-08-15T23:31:33.725Z,100642.91
2023-08-15T23:34:03.903Z,100640.03
2023-08-15T23:36:33.689Z,100646.44
2023-08-15T23:39:01.804Z,100648.78
2023-08-15T23:41:30.010Z,100644.41
2023-08-15T23:43:57.877Z,100644.78
2023-08-15T23:46:25.913Z,100641.41
2023-08-15T23:48:53.981Z,100645.59
2023-08-15T23:51:21.946Z,100648.13
2023-08-15T23:53:51.721Z,100643.56
2023-08-15T23:56:19.756Z,100647.47
2023-08-15T23:58:50.277Z,100643.38
